sensor_id;sensor_type;location;lat;lon;timestamp;P1;durP1;ratioP1;P2;durP2;ratioP2
10096;SDS011;5087;42.662;23.466;2023-04-01T00:01:57;0.37;;;0.37;;
10096;SDS011;5087;42.662;23.466;2023-04-01T00:04:24;0.43;;;0.43;;
10096;SDS011;5087;42.662;23.466;2023-04-01T00:06:51;0.50;;;0.50;;
10096;SDS011;5087;42.662;23.466;2023-04-01T00:09:18;1.17;;;1.17;;
10096;SDS011;5087;42.662;23.466;2023-04-01T00:11:45;0.47;;;0.47;;
10096;SDS011;5087;42.662;23.466;2023-04-01T00:14:14;0.60;;;0.60;;
10096;SDS011;5087;42.662;23.466;2023-04-01T00:16:41;0.60;;;0.60;;
10096;SDS011;5087;42.662;23.466;2023-04-01T00:19:08;0.60;;;0.60;;
10096;SDS011;5087;42.662;23.466;2023-04-01T00:21:36;0.70;;;0.70;;
10096;SDS011;5087;42.662;23.466;2023-04-01T00:24:03;0.80;;;0.80;;
10096;SDS011;5087;42.662;23.466;2023-04-01T00:26:31;0.80;;;0.80;;
10096;SDS011;5087;42.662;23.466;2023-04-01T00:28:58;1.00;;;1.00;;
10096;SDS011;5087;42.662;23.466;2023-04-01T00:31:27;0.90;;;0.90;;
10096;SDS011;5087;42.662;23.466;2023-04-01T00:33:56;0.90;;;0.90;;
10096;SDS011;5087;42.662;23.466;2023-04-01T00:36:24;1.00;;;1.00;;
10096;SDS011;5087;42.662;23.466;2023-04-01T00:38:51;1.07;;;1.07;;
10096;SDS011;5087;42.662;23.466;2023-04-01T00:41:19;1.10;;;1.10;;
10096;SDS011;5087;42.662;23.466;2023-04-01T00:43:47;1.30;;;1.30;;
10096;SDS011;5087;42.662;23.466;2023-04-01T00:46:16;1.40;;;1.40;;
10096;SDS011;5087;42.662;23.466;2023-04-01T00:48:45;1.50;;;1.50;;
10096;SDS011;5087;42.662;23.466;2023-04-01T00:51:17;1.47;;;1.47;;
10096;SDS011;5087;42.662;23.466;2023-04-01T00:53:47;1.60;;;1.60;;
10096;SDS011;5087;42.662;23.466;2023-04-01T00:56:18;1.50;;;1.50;;
10096;SDS011;5087;42.662;23.466;2023-04-01T00:58:48;1.60;;;1.60;;
10096;SDS011;5087;42.662;23.466;2023-04-01T01:01:18;1.40;;;1.40;;
10096;SDS011;5087;42.662;23.466;2023-04-01T01:03:49;1.10;;;1.10;;
10096;SDS011;5087;42.662;23.466;2023-04-01T01:06:20;1.17;;;1.17;;
10096;SDS011;5087;42.662;23.466;2023-04-01T01:11:44;1.10;;;1.10;;
10096;SDS011;5087;42.662;23.466;2023-04-01T01:14:24;1.00;;;1.00;;
10096;SDS011;5087;42.662;23.466;2023-04-01T01:16:58;1.47;;;1.47;;
10096;SDS011;5087;42.662;23.466;2023-04-01T01:19:37;0.70;;;0.70;;
10096;SDS011;5087;42.662;23.466;2023-04-01T01:22:19;0.60;;;0.60;;
10096;SDS011;5087;42.662;23.466;2023-04-01T01:25:14;0.80;;;0.80;;
10096;SDS011;5087;42.662;23.466;2023-04-01T01:27:49;0.80;;;0.80;;
10096;SDS011;5087;42.662;23.466;2023-04-01T01:30:29;0.80;;;0.80;;
10096;SDS011;5087;42.662;23.466;2023-04-01T01:36:18;0.80;;;0.80;;
10096;SDS011;5087;42.662;23.466;2023-04-01T01:38:48;1.00;;;1.00;;
10096;SDS011;5087;42.662;23.466;2023-04-01T01:41:17;1.00;;;1.00;;
10096;SDS011;5087;42.662;23.466;2023-04-01T01:43:47;1.20;;;1.20;;
10096;SDS011;5087;42.662;23.466;2023-04-01T01:46:18;1.00;;;1.00;;
10096;SDS011;5087;42.662;23.466;2023-04-01T01:48:49;1.00;;;1.00;;
10096;SDS011;5087;42.662;23.466;2023-04-01T01:51:20;1.00;;;1.00;;
10096;SDS011;5087;42.662;23.466;2023-04-01T01:53:48;1.03;;;1.03;;
10096;SDS011;5087;42.662;23.466;2023-04-01T01:56:18;1.00;;;1.00;;
10096;SDS011;5087;42.662;23.466;2023-04-01T01:58:48;1.00;;;1.00;;
10096;SDS011;5087;42.662;23.466;2023-04-01T02:01:21;1.10;;;1.10;;
10096;SDS011;5087;42.662;23.466;2023-04-01T02:03:51;0.83;;;0.83;;
10096;SDS011;5087;42.662;23.466;2023-04-01T02:06:21;2.60;;;2.50;;
10096;SDS011;5087;42.662;23.466;2023-04-01T02:08:50;0.90;;;0.90;;
10096;SDS011;5087;42.662;23.466;2023-04-01T02:11:24;2.30;;;2.20;;
10096;SDS011;5087;42.662;23.466;2023-04-01T02:13:56;0.80;;;0.80;;
10096;SDS011;5087;42.662;23.466;2023-04-01T02:16:28;1.00;;;1.00;;
10096;SDS011;5087;42.662;23.466;2023-04-01T02:19:01;0.60;;;0.60;;
10096;SDS011;5087;42.662;23.466;2023-04-01T02:21:34;1.37;;;1.37;;
10096;SDS011;5087;42.662;23.466;2023-04-01T02:24:04;0.80;;;0.80;;
10096;SDS011;5087;42.662;23.466;2023-04-01T02:26:35;0.60;;;0.60;;
10096;SDS011;5087;42.662;23.466;2023-04-01T02:29:02;0.60;;;0.60;;
10096;SDS011;5087;42.662;23.466;2023-04-01T02:31:32;0.70;;;0.70;;
10096;SDS011;5087;42.662;23.466;2023-04-01T02:34:00;0.80;;;0.80;;
10096;SDS011;5087;42.662;23.466;2023-04-01T02:36:28;0.80;;;0.80;;
10096;SDS011;5087;42.662;23.466;2023-04-01T02:38:58;0.70;;;0.70;;
10096;SDS011;5087;42.662;23.466;2023-04-01T02:41:29;2.10;;;2.00;;
10096;SDS011;5087;42.662;23.466;2023-04-01T02:43:56;0.60;;;0.60;;
10096;SDS011;5087;42.662;23.466;2023-04-01T02:46:24;0.60;;;0.60;;
10096;SDS011;5087;42.662;23.466;2023-04-01T02:48:52;0.70;;;0.70;;
10096;SDS011;5087;42.662;23.466;2023-04-01T02:51:27;0.80;;;0.80;;
10096;SDS011;5087;42.662;23.466;2023-04-01T02:53:55;1.20;;;1.20;;
10096;SDS011;5087;42.662;23.466;2023-04-01T02:56:23;1.30;;;1.30;;
10096;SDS011;5087;42.662;23.466;2023-04-01T02:58:51;1.20;;;1.20;;
10096;SDS011;5087;42.662;23.466;2023-04-01T03:01:18;1.20;;;1.20;;
10096;SDS011;5087;42.662;23.466;2023-04-01T03:03:46;1.80;;;1.80;;
10096;SDS011;5087;42.662;23.466;2023-04-01T03:06:14;1.40;;;1.40;;
10096;SDS011;5087;42.662;23.466;2023-04-01T03:08:42;1.80;;;1.80;;
10096;SDS011;5087;42.662;23.466;2023-04-01T03:11:10;1.60;;;1.60;;
10096;SDS011;5087;42.662;23.466;2023-04-01T03:13:42;1.77;;;1.77;;
10096;SDS011;5087;42.662;23.466;2023-04-01T03:16:10;1.60;;;1.60;;
10096;SDS011;5087;42.662;23.466;2023-04-01T03:18:37;1.70;;;1.70;;
10096;SDS011;5087;42.662;23.466;2023-04-01T03:21:14;1.90;;;1.90;;
10096;SDS011;5087;42.662;23.466;2023-04-01T03:23:42;1.63;;;1.63;;
10096;SDS011;5087;42.662;23.466;2023-04-01T03:26:09;1.30;;;1.30;;
10096;SDS011;5087;42.662;23.466;2023-04-01T03:28:37;1.40;;;1.40;;
10096;SDS011;5087;42.662;23.466;2023-04-01T03:31:07;1.10;;;1.10;;
10096;SDS011;5087;42.662;23.466;2023-04-01T03:33:42;1.40;;;1.40;;
10096;SDS011;5087;42.662;23.466;2023-04-01T03:36:09;1.43;;;1.43;;
10096;SDS011;5087;42.662;23.466;2023-04-01T03:38:39;1.60;;;1.60;;
10096;SDS011;5087;42.662;23.466;2023-04-01T03:41:11;2.37;;;2.37;;
10096;SDS011;5087;42.662;23.466;2023-04-01T03:43:39;1.90;;;1.90;;
10096;SDS011;5087;42.662;23.466;2023-04-01T03:46:07;1.70;;;1.70;;
10096;SDS011;5087;42.662;23.466;2023-04-01T03:48:35;1.90;;;1.90;;
10096;SDS011;5087;42.662;23.466;2023-04-01T03:51:06;2.10;;;2.10;;
10096;SDS011;5087;42.662;23.466;2023-04-01T03:53:33;2.60;;;2.60;;
10096;SDS011;5087;42.662;23.466;2023-04-01T03:56:04;2.50;;;2.50;;
10096;SDS011;5087;42.662;23.466;2023-04-01T03:58:34;2.60;;;2.60;;
10096;SDS011;5087;42.662;23.466;2023-04-01T04:01:02;2.40;;;2.40;;
10096;SDS011;5087;42.662;23.466;2023-04-01T04:03:33;2.50;;;2.50;;
10096;SDS011;5087;42.662;23.466;2023-04-01T04:06:00;2.30;;;2.30;;
10096;SDS011;5087;42.662;23.466;2023-04-01T04:08:30;2.80;;;2.80;;
10096;SDS011;5087;42.662;23.466;2023-04-01T04:10:58;2.60;;;2.60;;
10096;SDS011;5087;42.662;23.466;2023-04-01T04:13:25;2.40;;;2.40;;
10096;SDS011;5087;42.662;23.466;2023-04-01T04:15:59;2.20;;;2.20;;
10096;SDS011;5087;42.662;23.466;2023-04-01T04:18:29;1.77;;;1.77;;
10096;SDS011;5087;42.662;23.466;2023-04-01T04:20:58;1.17;;;1.17;;
10096;SDS011;5087;42.662;23.466;2023-04-01T04:23:26;0.90;;;0.90;;
10096;SDS011;5087;42.662;23.466;2023-04-01T04:25:56;0.90;;;0.90;;
10096;SDS011;5087;42.662;23.466;2023-04-01T04:28:27;0.90;;;0.90;;
10096;SDS011;5087;42.662;23.466;2023-04-01T04:30:56;1.40;;;1.40;;
10096;SDS011;5087;42.662;23.466;2023-04-01T04:33:24;1.20;;;1.20;;
10096;SDS011;5087;42.662;23.466;2023-04-01T04:35:54;1.00;;;1.00;;
10096;SDS011;5087;42.662;23.466;2023-04-01T04:38:25;1.20;;;1.20;;
10096;SDS011;5087;42.662;23.466;2023-04-01T04:40:53;2.00;;;2.00;;
10096;SDS011;5087;42.662;23.466;2023-04-01T04:43:21;1.63;;;1.63;;
10096;SDS011;5087;42.662;23.466;2023-04-01T04:45:52;1.30;;;1.30;;
10096;SDS011;5087;42.662;23.466;2023-04-01T04:48:20;1.70;;;1.70;;
10096;SDS011;5087;42.662;23.466;2023-04-01T04:50:48;1.60;;;1.60;;
10096;SDS011;5087;42.662;23.466;2023-04-01T04:53:18;1.50;;;1.50;;
10096;SDS011;5087;42.662;23.466;2023-04-01T04:55:48;2.00;;;2.00;;
10096;SDS011;5087;42.662;23.466;2023-04-01T04:58:33;1.70;;;1.70;;
10096;SDS011;5087;42.662;23.466;2023-04-01T05:01:05;1.80;;;1.80;;
10096;SDS011;5087;42.662;23.466;2023-04-01T05:03:32;2.10;;;2.10;;
10096;SDS011;5087;42.662;23.466;2023-04-01T05:06:05;2.30;;;2.30;;
10096;SDS011;5087;42.662;23.466;2023-04-01T05:08:34;2.80;;;2.80;;
10096;SDS011;5087;42.662;23.466;2023-04-01T05:11:06;4.80;;;4.70;;
10096;SDS011;5087;42.662;23.466;2023-04-01T05:13:36;3.60;;;3.60;;
10096;SDS011;5087;42.662;23.466;2023-04-01T05:16:07;3.60;;;3.60;;
10096;SDS011;5087;42.662;23.466;2023-04-01T05:18:36;3.70;;;3.70;;
10096;SDS011;5087;42.662;23.466;2023-04-01T05:21:06;3.50;;;3.50;;
10096;SDS011;5087;42.662;23.466;2023-04-01T05:23:39;3.40;;;3.40;;
10096;SDS011;5087;42.662;23.466;2023-04-01T05:26:11;3.87;;;3.87;;
10096;SDS011;5087;42.662;23.466;2023-04-01T05:28:42;3.57;;;3.57;;
10096;SDS011;5087;42.662;23.466;2023-04-01T05:31:10;3.13;;;3.13;;
10096;SDS011;5087;42.662;23.466;2023-04-01T05:33:39;3.50;;;3.50;;
10096;SDS011;5087;42.662;23.466;2023-04-01T05:36:09;3.73;;;3.73;;
10096;SDS011;5087;42.662;23.466;2023-04-01T05:38:39;3.60;;;3.60;;
10096;SDS011;5087;42.662;23.466;2023-04-01T05:41:14;4.00;;;3.93;;
10096;SDS011;5087;42.662;23.466;2023-04-01T05:43:44;3.80;;;3.80;;
10096;SDS011;5087;42.662;23.466;2023-04-01T05:46:30;4.60;;;4.50;;
10096;SDS011;5087;42.662;23.466;2023-04-01T05:49:27;4.37;;;4.27;;
10096;SDS011;5087;42.662;23.466;2023-04-01T05:51:54;4.70;;;4.60;;
10096;SDS011;5087;42.662;23.466;2023-04-01T05:54:22;4.90;;;4.80;;
10096;SDS011;5087;42.662;23.466;2023-04-01T05:56:51;5.27;;;5.17;;
10096;SDS011;5087;42.662;23.466;2023-04-01T05:59:19;5.20;;;5.10;;
10096;SDS011;5087;42.662;23.466;2023-04-01T06:01:47;5.20;;;5.10;;
10096;SDS011;5087;42.662;23.466;2023-04-01T06:04:17;5.40;;;5.30;;
10096;SDS011;5087;42.662;23.466;2023-04-01T06:06:49;5.30;;;5.20;;
10096;SDS011;5087;42.662;23.466;2023-04-01T06:09:18;5.80;;;5.70;;
10096;SDS011;5087;42.662;23.466;2023-04-01T06:11:59;5.53;;;5.43;;
10096;SDS011;5087;42.662;23.466;2023-04-01T06:14:53;5.50;;;5.40;;
10096;SDS011;5087;42.662;23.466;2023-04-01T06:17:34;5.60;;;5.50;;
10096;SDS011;5087;42.662;23.466;2023-04-01T06:20:11;6.63;;;6.43;;
10096;SDS011;5087;42.662;23.466;2023-04-01T06:22:55;5.30;;;5.20;;
10096;SDS011;5087;42.662;23.466;2023-04-01T06:25:38;5.20;;;5.10;;
10096;SDS011;5087;42.662;23.466;2023-04-01T06:28:30;5.10;;;5.00;;
10096;SDS011;5087;42.662;23.466;2023-04-01T06:31:10;4.87;;;4.77;;
10096;SDS011;5087;42.662;23.466;2023-04-01T06:33:51;5.40;;;5.30;;
10096;SDS011;5087;42.662;23.466;2023-04-01T06:36:40;5.30;;;5.20;;
10096;SDS011;5087;42.662;23.466;2023-04-01T06:42:29;5.20;;;5.10;;
10096;SDS011;5087;42.662;23.466;2023-04-01T06:45:23;5.40;;;5.30;;
10096;SDS011;5087;42.662;23.466;2023-04-01T06:48:40;5.20;;;5.10;;
10096;SDS011;5087;42.662;23.466;2023-04-01T06:51:39;5.40;;;5.30;;
10096;SDS011;5087;42.662;23.466;2023-04-01T06:54:32;5.33;;;5.23;;
10096;SDS011;5087;42.662;23.466;2023-04-01T06:57:38;5.20;;;5.10;;
10096;SDS011;5087;42.662;23.466;2023-04-01T07:00:11;5.17;;;5.07;;
10096;SDS011;5087;42.662;23.466;2023-04-01T07:02:45;5.63;;;5.53;;
10096;SDS011;5087;42.662;23.466;2023-04-01T07:05:23;5.40;;;5.30;;
10096;SDS011;5087;42.662;23.466;2023-04-01T07:07:57;4.93;;;4.83;;
10096;SDS011;5087;42.662;23.466;2023-04-01T07:10:31;4.57;;;4.47;;
10096;SDS011;5087;42.662;23.466;2023-04-01T07:13:21;5.50;;;5.40;;
10096;SDS011;5087;42.662;23.466;2023-04-01T07:16:08;5.40;;;5.30;;
10096;SDS011;5087;42.662;23.466;2023-04-01T07:18:44;5.70;;;5.60;;
10096;SDS011;5087;42.662;23.466;2023-04-01T07:21:19;5.87;;;5.77;;
10096;SDS011;5087;42.662;23.466;2023-04-01T07:23:56;5.60;;;5.50;;
10096;SDS011;5087;42.662;23.466;2023-04-01T07:26:33;5.37;;;5.27;;
10096;SDS011;5087;42.662;23.466;2023-04-01T07:29:13;5.13;;;5.03;;
10096;SDS011;5087;42.662;23.466;2023-04-01T07:37:47;6.17;;;5.97;;
10096;SDS011;5087;42.662;23.466;2023-04-01T07:40:30;5.80;;;5.60;;
10096;SDS011;5087;42.662;23.466;2023-04-01T07:43:19;4.73;;;4.63;;
10096;SDS011;5087;42.662;23.466;2023-04-01T07:46:19;5.20;;;5.10;;
10096;SDS011;5087;42.662;23.466;2023-04-01T07:49:01;3.80;;;3.80;;
10096;SDS011;5087;42.662;23.466;2023-04-01T07:51:37;3.50;;;3.50;;
10096;SDS011;5087;42.662;23.466;2023-04-01T07:54:16;4.40;;;4.30;;
10096;SDS011;5087;42.662;23.466;2023-04-01T07:56:50;3.23;;;3.23;;
10096;SDS011;5087;42.662;23.466;2023-04-01T07:59:33;3.47;;;3.47;;
10096;SDS011;5087;42.662;23.466;2023-04-01T08:02:24;3.00;;;3.00;;
10096;SDS011;5087;42.662;23.466;2023-04-01T08:05:04;4.67;;;4.57;;
10096;SDS011;5087;42.662;23.466;2023-04-01T08:07:46;4.20;;;4.10;;
10096;SDS011;5087;42.662;23.466;2023-04-01T08:11:01;4.20;;;4.10;;
10096;SDS011;5087;42.662;23.466;2023-04-01T08:14:00;4.30;;;4.20;;
10096;SDS011;5087;42.662;23.466;2023-04-01T08:16:56;3.80;;;3.80;;
10096;SDS011;5087;42.662;23.466;2023-04-01T08:19:42;3.70;;;3.70;;
10096;SDS011;5087;42.662;23.466;2023-04-01T08:22:20;3.70;;;3.70;;
10096;SDS011;5087;42.662;23.466;2023-04-01T08:24:56;3.67;;;3.67;;
10096;SDS011;5087;42.662;23.466;2023-04-01T08:27:31;3.70;;;3.70;;
10096;SDS011;5087;42.662;23.466;2023-04-01T08:30:14;3.80;;;3.80;;
10096;SDS011;5087;42.662;23.466;2023-04-01T08:32:45;3.73;;;3.73;;
10096;SDS011;5087;42.662;23.466;2023-04-01T08:35:19;4.13;;;4.03;;
10096;SDS011;5087;42.662;23.466;2023-04-01T08:37:53;3.40;;;3.40;;
10096;SDS011;5087;42.662;23.466;2023-04-01T08:40:32;3.40;;;3.40;;
10096;SDS011;5087;42.662;23.466;2023-04-01T08:43:16;3.40;;;3.40;;
10096;SDS011;5087;42.662;23.466;2023-04-01T08:45:56;3.40;;;3.40;;
10096;SDS011;5087;42.662;23.466;2023-04-01T08:48:46;4.07;;;4.00;;
10096;SDS011;5087;42.662;23.466;2023-04-01T08:57:49;4.57;;;4.47;;
10096;SDS011;5087;42.662;23.466;2023-04-01T09:00:52;6.00;;;5.80;;
10096;SDS011;5087;42.662;23.466;2023-04-01T09:03:37;4.63;;;4.53;;
10096;SDS011;5087;42.662;23.466;2023-04-01T09:12:16;4.50;;;4.40;;
10096;SDS011;5087;42.662;23.466;2023-04-01T09:15:07;4.53;;;4.43;;
10096;SDS011;5087;42.662;23.466;2023-04-01T09:18:09;4.70;;;4.60;;
10096;SDS011;5087;42.662;23.466;2023-04-01T09:23:45;3.90;;;3.90;;
10096;SDS011;5087;42.662;23.466;2023-04-01T09:26:43;3.30;;;3.30;;
10096;SDS011;5087;42.662;23.466;2023-04-01T09:29:29;4.03;;;3.93;;
10096;SDS011;5087;42.662;23.466;2023-04-01T09:35:30;3.63;;;3.63;;
10096;SDS011;5087;42.662;23.466;2023-04-01T09:38:18;3.80;;;3.80;;
10096;SDS011;5087;42.662;23.466;2023-04-01T09:40:55;3.70;;;3.70;;
10096;SDS011;5087;42.662;23.466;2023-04-01T09:43:51;3.73;;;3.73;;
10096;SDS011;5087;42.662;23.466;2023-04-01T09:46:44;3.80;;;3.80;;
10096;SDS011;5087;42.662;23.466;2023-04-01T09:49:42;3.90;;;3.90;;
10096;SDS011;5087;42.662;23.466;2023-04-01T09:52:24;3.80;;;3.80;;
10096;SDS011;5087;42.662;23.466;2023-04-01T09:55:16;3.70;;;3.70;;
10096;SDS011;5087;42.662;23.466;2023-04-01T09:58:05;3.80;;;3.80;;
10096;SDS011;5087;42.662;23.466;2023-04-01T10:07:06;3.50;;;3.50;;
10096;SDS011;5087;42.662;23.466;2023-04-01T10:16:21;3.40;;;3.40;;
10096;SDS011;5087;42.662;23.466;2023-04-01T10:28:22;4.07;;;3.97;;
10096;SDS011;5087;42.662;23.466;2023-04-01T10:44:51;3.00;;;3.00;;
10096;SDS011;5087;42.662;23.466;2023-04-01T10:48:03;4.03;;;3.93;;
10096;SDS011;5087;42.662;23.466;2023-04-01T10:50:54;3.20;;;3.20;;
10096;SDS011;5087;42.662;23.466;2023-04-01T10:53:44;3.10;;;3.10;;
10096;SDS011;5087;42.662;23.466;2023-04-01T10:56:51;2.90;;;2.90;;
10096;SDS011;5087;42.662;23.466;2023-04-01T10:59:32;3.03;;;3.03;;
10096;SDS011;5087;42.662;23.466;2023-04-01T11:09:24;2.77;;;2.77;;
10096;SDS011;5087;42.662;23.466;2023-04-01T11:15:53;3.00;;;3.00;;
10096;SDS011;5087;42.662;23.466;2023-04-01T11:21:59;2.87;;;2.87;;
10096;SDS011;5087;42.662;23.466;2023-04-01T11:24:58;3.37;;;3.37;;
10096;SDS011;5087;42.662;23.466;2023-04-01T11:33:33;3.07;;;3.07;;
10096;SDS011;5087;42.662;23.466;2023-04-01T11:36:15;2.97;;;2.97;;
10096;SDS011;5087;42.662;23.466;2023-04-01T11:38:58;2.70;;;2.70;;
10096;SDS011;5087;42.662;23.466;2023-04-01T11:41:59;2.50;;;2.50;;
10096;SDS011;5087;42.662;23.466;2023-04-01T11:45:10;2.30;;;2.30;;
10096;SDS011;5087;42.662;23.466;2023-04-01T11:48:00;2.40;;;2.40;;
10096;SDS011;5087;42.662;23.466;2023-04-01T11:50:55;2.20;;;2.20;;
10096;SDS011;5087;42.662;23.466;2023-04-01T11:53:37;5.53;;;5.40;;
10096;SDS011;5087;42.662;23.466;2023-04-01T11:56:21;5.50;;;5.40;;
10096;SDS011;5087;42.662;23.466;2023-04-01T11:59:28;8.37;;;8.17;;
10096;SDS011;5087;42.662;23.466;2023-04-01T12:02:11;10.90;;;10.60;;
10096;SDS011;5087;42.662;23.466;2023-04-01T12:04:54;8.00;;;7.80;;
10096;SDS011;5087;42.662;23.466;2023-04-01T12:07:48;3.40;;;3.40;;
10096;SDS011;5087;42.662;23.466;2023-04-01T12:10:28;1.63;;;1.63;;
10096;SDS011;5087;42.662;23.466;2023-04-01T12:13:05;0.70;;;0.70;;
10096;SDS011;5087;42.662;23.466;2023-04-01T12:15:55;0.80;;;0.80;;
10096;SDS011;5087;42.662;23.466;2023-04-01T12:18:33;0.20;;;0.20;;
10096;SDS011;5087;42.662;23.466;2023-04-01T12:21:11;0.00;;;0.00;;
10096;SDS011;5087;42.662;23.466;2023-04-01T12:27:02;0.00;;;0.00;;
10096;SDS011;5087;42.662;23.466;2023-04-01T12:45:29;0.20;;;0.20;;
10096;SDS011;5087;42.662;23.466;2023-04-01T12:48:16;0.00;;;0.00;;
10096;SDS011;5087;42.662;23.466;2023-04-01T12:51:11;0.00;;;0.00;;
10096;SDS011;5087;42.662;23.466;2023-04-01T12:54:07;0.20;;;0.20;;
10096;SDS011;5087;42.662;23.466;2023-04-01T12:56:54;0.10;;;0.10;;
10096;SDS011;5087;42.662;23.466;2023-04-01T12:59:46;0.00;;;0.00;;
10096;SDS011;5087;42.662;23.466;2023-04-01T13:02:29;0.00;;;0.00;;
10096;SDS011;5087;42.662;23.466;2023-04-01T13:05:18;0.10;;;0.10;;
10096;SDS011;5087;42.662;23.466;2023-04-01T13:08:05;0.00;;;0.00;;
10096;SDS011;5087;42.662;23.466;2023-04-01T13:10:53;0.00;;;0.00;;
10096;SDS011;5087;42.662;23.466;2023-04-01T13:13:56;0.00;;;0.00;;
10096;SDS011;5087;42.662;23.466;2023-04-01T13:16:45;0.00;;;0.00;;
10096;SDS011;5087;42.662;23.466;2023-04-01T13:19:21;0.00;;;0.00;;
10096;SDS011;5087;42.662;23.466;2023-04-01T13:22:02;0.10;;;0.10;;
10096;SDS011;5087;42.662;23.466;2023-04-01T13:24:41;0.00;;;0.00;;
10096;SDS011;5087;42.662;23.466;2023-04-01T13:27:17;0.00;;;0.00;;
10096;SDS011;5087;42.662;23.466;2023-04-01T13:29:54;1.03;;;0.73;;
10096;SDS011;5087;42.662;23.466;2023-04-01T13:32:33;0.10;;;0.10;;
10096;SDS011;5087;42.662;23.466;2023-04-01T13:35:17;0.37;;;0.37;;
10096;SDS011;5087;42.662;23.466;2023-04-01T13:37:57;0.40;;;0.40;;
10096;SDS011;5087;42.662;23.466;2023-04-01T13:40:40;0.00;;;0.00;;
10096;SDS011;5087;42.662;23.466;2023-04-01T13:43:16;0.00;;;0.00;;
10096;SDS011;5087;42.662;23.466;2023-04-01T13:46:02;0.00;;;0.00;;
10096;SDS011;5087;42.662;23.466;2023-04-01T13:51:56;0.30;;;0.30;;
10096;SDS011;5087;42.662;23.466;2023-04-01T13:54:51;0.00;;;0.00;;
10096;SDS011;5087;42.662;23.466;2023-04-01T14:00:25;16.70;;;1.03;;
10096;SDS011;5087;42.662;23.466;2023-04-01T14:03:15;0.10;;;0.10;;
10096;SDS011;5087;42.662;23.466;2023-04-01T14:06:04;0.00;;;0.00;;
10096;SDS011;5087;42.662;23.466;2023-04-01T14:08:50;0.00;;;0.00;;
10096;SDS011;5087;42.662;23.466;2023-04-01T14:11:30;0.00;;;0.00;;
10096;SDS011;5087;42.662;23.466;2023-04-01T14:14:32;0.80;;;0.80;;
10096;SDS011;5087;42.662;23.466;2023-04-01T14:17:17;0.40;;;0.40;;
10096;SDS011;5087;42.662;23.466;2023-04-01T14:20:02;0.70;;;0.70;;
10096;SDS011;5087;42.662;23.466;2023-04-01T14:22:57;0.30;;;0.30;;
10096;SDS011;5087;42.662;23.466;2023-04-01T14:25:50;0.50;;;0.50;;
10096;SDS011;5087;42.662;23.466;2023-04-01T14:28:30;1.00;;;1.00;;
10096;SDS011;5087;42.662;23.466;2023-04-01T14:31:14;0.70;;;0.70;;
10096;SDS011;5087;42.662;23.466;2023-04-01T14:33:57;1.00;;;1.00;;
10096;SDS011;5087;42.662;23.466;2023-04-01T14:36:49;1.63;;;1.63;;
10096;SDS011;5087;42.662;23.466;2023-04-01T14:39:29;1.67;;;1.63;;
10096;SDS011;5087;42.662;23.466;2023-04-01T14:42:18;2.07;;;2.07;;
10096;SDS011;5087;42.662;23.466;2023-04-01T14:48:13;2.70;;;2.70;;
10096;SDS011;5087;42.662;23.466;2023-04-01T14:50:45;2.30;;;2.30;;
10096;SDS011;5087;42.662;23.466;2023-04-01T14:53:22;1.50;;;1.50;;
10096;SDS011;5087;42.662;23.466;2023-04-01T14:55:55;0.60;;;0.60;;
10096;SDS011;5087;42.662;23.466;2023-04-01T14:58:24;27.47;;;11.53;;
10096;SDS011;5087;42.662;23.466;2023-04-01T15:01:10;0.47;;;0.47;;
10096;SDS011;5087;42.662;23.466;2023-04-01T15:03:53;0.60;;;0.60;;
10096;SDS011;5087;42.662;23.466;2023-04-01T15:06:40;0.50;;;0.50;;
10096;SDS011;5087;42.662;23.466;2023-04-01T15:09:21;0.53;;;0.53;;
10096;SDS011;5087;42.662;23.466;2023-04-01T15:12:00;1.80;;;1.80;;
10096;SDS011;5087;42.662;23.466;2023-04-01T15:14:50;7.67;;;1.13;;
10096;SDS011;5087;42.662;23.466;2023-04-01T15:17:38;0.30;;;0.30;;
10096;SDS011;5087;42.662;23.466;2023-04-01T15:20:24;1.83;;;1.80;;
10096;SDS011;5087;42.662;23.466;2023-04-01T15:23:18;0.53;;;0.53;;
10096;SDS011;5087;42.662;23.466;2023-04-01T15:26:04;0.20;;;0.20;;
10096;SDS011;5087;42.662;23.466;2023-04-01T15:29:04;0.30;;;0.30;;
10096;SDS011;5087;42.662;23.466;2023-04-01T15:31:45;1.03;;;1.03;;
10096;SDS011;5087;42.662;23.466;2023-04-01T15:34:22;0.30;;;0.30;;
10096;SDS011;5087;42.662;23.466;2023-04-01T15:36:56;0.50;;;0.50;;
10096;SDS011;5087;42.662;23.466;2023-04-01T15:39:36;0.40;;;0.40;;
10096;SDS011;5087;42.662;23.466;2023-04-01T15:42:14;0.43;;;0.43;;
10096;SDS011;5087;42.662;23.466;2023-04-01T15:45:15;1.43;;;1.33;;
10096;SDS011;5087;42.662;23.466;2023-04-01T15:48:01;0.93;;;0.93;;
10096;SDS011;5087;42.662;23.466;2023-04-01T15:53:47;0.70;;;0.70;;
10096;SDS011;5087;42.662;23.466;2023-04-01T15:56:47;0.90;;;0.90;;
10096;SDS011;5087;42.662;23.466;2023-04-01T16:00:02;0.50;;;0.50;;
10096;SDS011;5087;42.662;23.466;2023-04-01T16:06:09;4.97;;;4.87;;
10096;SDS011;5087;42.662;23.466;2023-04-01T16:08:59;1.93;;;1.93;;
10096;SDS011;5087;42.662;23.466;2023-04-01T16:11:44;1.80;;;1.80;;
10096;SDS011;5087;42.662;23.466;2023-04-01T16:14:24;0.33;;;0.33;;
10096;SDS011;5087;42.662;23.466;2023-04-01T16:17:05;0.00;;;0.00;;
10096;SDS011;5087;42.662;23.466;2023-04-01T16:19:51;0.00;;;0.00;;
10096;SDS011;5087;42.662;23.466;2023-04-01T16:22:25;0.20;;;0.20;;
10096;SDS011;5087;42.662;23.466;2023-04-01T16:25:01;0.00;;;0.00;;
10096;SDS011;5087;42.662;23.466;2023-04-01T16:27:46;0.10;;;0.10;;
10096;SDS011;5087;42.662;23.466;2023-04-01T16:30:25;0.10;;;0.07;;
10096;SDS011;5087;42.662;23.466;2023-04-01T16:33:11;0.00;;;0.00;;
10096;SDS011;5087;42.662;23.466;2023-04-01T16:35:46;0.00;;;0.00;;
10096;SDS011;5087;42.662;23.466;2023-04-01T16:38:22;0.73;;;0.73;;
10096;SDS011;5087;42.662;23.466;2023-04-01T16:41:10;1.13;;;1.13;;
10096;SDS011;5087;42.662;23.466;2023-04-01T16:43:42;0.00;;;0.00;;
10096;SDS011;5087;42.662;23.466;2023-04-01T16:46:18;0.00;;;0.00;;
10096;SDS011;5087;42.662;23.466;2023-04-01T16:52:14;0.30;;;0.30;;
10096;SDS011;5087;42.662;23.466;2023-04-01T16:54:48;0.00;;;0.00;;
10096;SDS011;5087;42.662;23.466;2023-04-01T16:57:23;0.10;;;0.10;;
10096;SDS011;5087;42.662;23.466;2023-04-01T16:59:54;0.10;;;0.10;;
10096;SDS011;5087;42.662;23.466;2023-04-01T17:02:33;0.10;;;0.10;;
10096;SDS011;5087;42.662;23.466;2023-04-01T17:05:08;0.00;;;0.00;;
10096;SDS011;5087;42.662;23.466;2023-04-01T17:07:40;0.00;;;0.00;;
10096;SDS011;5087;42.662;23.466;2023-04-01T17:10:22;0.20;;;0.20;;
10096;SDS011;5087;42.662;23.466;2023-04-01T17:13:08;0.10;;;0.10;;
10096;SDS011;5087;42.662;23.466;2023-04-01T17:15:52;1.13;;;1.13;;
10096;SDS011;5087;42.662;23.466;2023-04-01T17:18:29;0.30;;;0.30;;
10096;SDS011;5087;42.662;23.466;2023-04-01T17:21:06;0.27;;;0.27;;
10096;SDS011;5087;42.662;23.466;2023-04-01T17:23:38;0.30;;;0.30;;
10096;SDS011;5087;42.662;23.466;2023-04-01T17:26:19;0.23;;;0.23;;
10096;SDS011;5087;42.662;23.466;2023-04-01T17:28:53;0.40;;;0.40;;
10096;SDS011;5087;42.662;23.466;2023-04-01T17:34:30;0.50;;;0.50;;
10096;SDS011;5087;42.662;23.466;2023-04-01T17:37:27;0.50;;;0.50;;
10096;SDS011;5087;42.662;23.466;2023-04-01T17:40:12;0.50;;;0.50;;
10096;SDS011;5087;42.662;23.466;2023-04-01T17:42:51;0.60;;;0.60;;
10096;SDS011;5087;42.662;23.466;2023-04-01T17:45:28;0.60;;;0.60;;
10096;SDS011;5087;42.662;23.466;2023-04-01T17:48:01;0.63;;;0.63;;
10096;SDS011;5087;42.662;23.466;2023-04-01T17:50:43;0.60;;;0.60;;
10096;SDS011;5087;42.662;23.466;2023-04-01T17:53:26;0.80;;;0.80;;
10096;SDS011;5087;42.662;23.466;2023-04-01T17:56:09;0.50;;;0.50;;
10096;SDS011;5087;42.662;23.466;2023-04-01T17:58:46;0.40;;;0.40;;
10096;SDS011;5087;42.662;23.466;2023-04-01T18:01:26;0.50;;;0.50;;
10096;SDS011;5087;42.662;23.466;2023-04-01T18:04:11;0.50;;;0.50;;
10096;SDS011;5087;42.662;23.466;2023-04-01T18:06:54;0.40;;;0.40;;
10096;SDS011;5087;42.662;23.466;2023-04-01T18:09:44;0.60;;;0.60;;